sensor_id;sensor_type;location;lat;lon;timestamp;temperature;humidity
10247;DHT22;5168;47.854;7.944;2022-08-14T00:00:38;17.40;61.40
10247;DHT22;5168;47.854;7.944;2022-08-14T00:05:30;18.00;64.00
10247;DHT22;5168;47.854;7.944;2022-08-14T00:07:55;17.00;71.10
10247;DHT22;5168;47.854;7.944;2022-08-14T00:10:21;17.90;71.20
10247;DHT22;5168;47.854;7.944;2022-08-14T00:12:52;17.80;60.80
10247;DHT22;5168;47.854;7.944;2022-08-14T00:15:22;17.60;60.60
10247;DHT22;5168;47.854;7.944;2022-08-14T00:17:49;17.00;71.30
10247;DHT22;5168;47.854;7.944;2022-08-14T00:20:17;17.20;69.60
10247;DHT22;5168;47.854;7.944;2022-08-14T00:22:44;16.80;72.00
10247;DHT22;5168;47.854;7.944;2022-08-14T00:25:10;17.40;70.10
10247;DHT22;5168;47.854;7.944;2022-08-14T00:30:05;17.20;61.90
10247;DHT22;5168;47.854;7.944;2022-08-14T00:32:30;17.30;73.00
10247;DHT22;5168;47.854;7.944;2022-08-14T00:39:51;16.90;72.90
10247;DHT22;5168;47.854;7.944;2022-08-14T00:42:20;16.80;65.50
10247;DHT22;5168;47.854;7.944;2022-08-14T00:44:46;16.70;73.10
10247;DHT22;5168;47.854;7.944;2022-08-14T00:47:13;16.50;72.50
10247;DHT22;5168;47.854;7.944;2022-08-14T00:52:05;16.80;72.20
10247;DHT22;5168;47.854;7.944;2022-08-14T00:59:27;16.70;72.20
10247;DHT22;5168;47.854;7.944;2022-08-14T01:01:55;17.00;72.30
10247;DHT22;5168;47.854;7.944;2022-08-14T01:04:22;16.90;60.70
10247;DHT22;5168;47.854;7.944;2022-08-14T01:06:49;16.50;60.90
10247;DHT22;5168;47.854;7.944;2022-08-14T01:09:17;16.90;60.60
10247;DHT22;5168;47.854;7.944;2022-08-14T01:11:48;17.10;64.30
10247;DHT22;5168;47.854;7.944;2022-08-14T01:14:14;16.70;70.70
10247;DHT22;5168;47.854;7.944;2022-08-14T01:16:39;16.60;71.00
10247;DHT22;5168;47.854;7.944;2022-08-14T01:21:49;16.70;69.90
10247;DHT22;5168;47.854;7.944;2022-08-14T01:26:41;16.90;71.40
10247;DHT22;5168;47.854;7.944;2022-08-14T01:29:08;17.00;58.30
10247;DHT22;5168;47.854;7.944;2022-08-14T01:31:36;17.00;57.50
10247;DHT22;5168;47.854;7.944;2022-08-14T01:36:51;16.80;59.50
10247;DHT22;5168;47.854;7.944;2022-08-14T01:39:19;17.10;56.00
10247;DHT22;5168;47.854;7.944;2022-08-14T01:41:46;17.40;59.20
10247;DHT22;5168;47.854;7.944;2022-08-14T01:44:22;17.10;55.80
10247;DHT22;5168;47.854;7.944;2022-08-14T01:46:49;16.60;63.50
10247;DHT22;5168;47.854;7.944;2022-08-14T01:49:18;16.90;63.40
10247;DHT22;5168;47.854;7.944;2022-08-14T01:51:44;16.80;63.10
10247;DHT22;5168;47.854;7.944;2022-08-14T01:54:13;17.20;62.60
10247;DHT22;5168;47.854;7.944;2022-08-14T01:56:40;17.00;54.90
10247;DHT22;5168;47.854;7.944;2022-08-14T01:59:17;17.10;56.90
10247;DHT22;5168;47.854;7.944;2022-08-14T02:01:51;19.00;54.50
10247;DHT22;5168;47.854;7.944;2022-08-14T02:04:18;16.80;60.10
10247;DHT22;5168;47.854;7.944;2022-08-14T02:06:45;17.40;59.20
10247;DHT22;5168;47.854;7.944;2022-08-14T02:09:11;17.30;60.40
10247;DHT22;5168;47.854;7.944;2022-08-14T02:11:37;17.00;59.70
10247;DHT22;5168;47.854;7.944;2022-08-14T02:14:07;16.90;57.20
10247;DHT22;5168;47.854;7.944;2022-08-14T02:16:36;17.70;54.10
10247;DHT22;5168;47.854;7.944;2022-08-14T02:19:07;17.70;60.70
10247;DHT22;5168;47.854;7.944;2022-08-14T02:21:34;17.60;60.90
10247;DHT22;5168;47.854;7.944;2022-08-14T02:24:02;17.30;52.00
10247;DHT22;5168;47.854;7.944;2022-08-14T02:26:32;17.20;61.60
10247;DHT22;5168;47.854;7.944;2022-08-14T02:29:00;16.90;53.50
10247;DHT22;5168;47.854;7.944;2022-08-14T02:31:30;16.90;58.20
10247;DHT22;5168;47.854;7.944;2022-08-14T02:34:03;17.00;63.30
10247;DHT22;5168;47.854;7.944;2022-08-14T02:36:29;17.00;63.40
10247;DHT22;5168;47.854;7.944;2022-08-14T02:38:55;17.30;64.60
10247;DHT22;5168;47.854;7.944;2022-08-14T02:41:21;17.50;65.80
10247;DHT22;5168;47.854;7.944;2022-08-14T02:43:47;16.70;57.30
10247;DHT22;5168;47.854;7.944;2022-08-14T02:46:13;17.00;66.40
10247;DHT22;5168;47.854;7.944;2022-08-14T02:48:42;17.20;56.50
10247;DHT22;5168;47.854;7.944;2022-08-14T02:51:10;17.20;66.90
10247;DHT22;5168;47.854;7.944;2022-08-14T02:53:39;17.50;61.80
10247;DHT22;5168;47.854;7.944;2022-08-14T02:56:06;16.90;59.10
10247;DHT22;5168;47.854;7.944;2022-08-14T02:58:33;17.40;69.60
10247;DHT22;5168;47.854;7.944;2022-08-14T03:01:02;17.40;59.50
10247;DHT22;5168;47.854;7.944;2022-08-14T03:10:46;17.10;59.90
10247;DHT22;5168;47.854;7.944;2022-08-14T03:15:38;17.20;73.00
10247;DHT22;5168;47.854;7.944;2022-08-14T03:18:27;17.00;73.10
10247;DHT22;5168;47.854;7.944;2022-08-14T03:20:53;17.40;73.30
10247;DHT22;5168;47.854;7.944;2022-08-14T03:23:19;17.00;63.00
10247;DHT22;5168;47.854;7.944;2022-08-14T03:25:45;18.10;66.40
10247;DHT22;5168;47.854;7.944;2022-08-14T03:28:12;17.20;71.70
10247;DHT22;5168;47.854;7.944;2022-08-14T03:30:38;16.60;75.00
10247;DHT22;5168;47.854;7.944;2022-08-14T03:33:05;17.50;76.40
10247;DHT22;5168;47.854;7.944;2022-08-14T03:35:31;16.80;75.10
10247;DHT22;5168;47.854;7.944;2022-08-14T03:38:08;17.50;76.10
10247;DHT22;5168;47.854;7.944;2022-08-14T03:40:34;16.60;72.60
10247;DHT22;5168;47.854;7.944;2022-08-14T03:43:03;17.50;73.60
10247;DHT22;5168;47.854;7.944;2022-08-14T03:45:31;17.40;75.70
10247;DHT22;5168;47.854;7.944;2022-08-14T03:47:58;16.50;75.00
10247;DHT22;5168;47.854;7.944;2022-08-14T03:50:26;17.10;75.70
10247;DHT22;5168;47.854;7.944;2022-08-14T03:52:52;17.10;75.60
10247;DHT22;5168;47.854;7.944;2022-08-14T03:57:43;16.80;75.50
10247;DHT22;5168;47.854;7.944;2022-08-14T04:00:11;16.60;63.90
10247;DHT22;5168;47.854;7.944;2022-08-14T04:02:38;17.10;65.60
10247;DHT22;5168;47.854;7.944;2022-08-14T04:05:09;16.80;63.60
10247;DHT22;5168;47.854;7.944;2022-08-14T04:07:35;16.30;74.40
10247;DHT22;5168;47.854;7.944;2022-08-14T04:10:03;16.80;75.20
10247;DHT22;5168;47.854;7.944;2022-08-14T04:12:28;17.20;75.80
10247;DHT22;5168;47.854;7.944;2022-08-14T04:22:12;16.50;65.50
10247;DHT22;5168;47.854;7.944;2022-08-14T04:24:39;17.00;78.00
10247;DHT22;5168;47.854;7.944;2022-08-14T04:27:09;16.50;66.10
10247;DHT22;5168;47.854;7.944;2022-08-14T04:29:37;16.70;78.00
10247;DHT22;5168;47.854;7.944;2022-08-14T04:32:05;16.20;66.80
10247;DHT22;5168;47.854;7.944;2022-08-14T04:34:32;16.20;78.70
10247;DHT22;5168;47.854;7.944;2022-08-14T04:39:44;15.60;78.90
10247;DHT22;5168;47.854;7.944;2022-08-14T04:42:28;15.50;73.90
10247;DHT22;5168;47.854;7.944;2022-08-14T04:45:12;15.70;70.30
10247;DHT22;5168;47.854;7.944;2022-08-14T04:47:39;15.90;80.50
10247;DHT22;5168;47.854;7.944;2022-08-14T04:52:49;16.50;81.10
10247;DHT22;5168;47.854;7.944;2022-08-14T04:57:42;16.30;81.00
10247;DHT22;5168;47.854;7.944;2022-08-14T05:00:08;16.10;81.00
10247;DHT22;5168;47.854;7.944;2022-08-14T05:02:34;16.00;81.60
10247;DHT22;5168;47.854;7.944;2022-08-14T05:05:01;15.80;81.50
10247;DHT22;5168;47.854;7.944;2022-08-14T05:07:26;15.70;81.80
10247;DHT22;5168;47.854;7.944;2022-08-14T05:09:52;15.50;80.60
10247;DHT22;5168;47.854;7.944;2022-08-14T05:17:10;15.10;82.80
10247;DHT22;5168;47.854;7.944;2022-08-14T05:22:02;15.60;72.90
10247;DHT22;5168;47.854;7.944;2022-08-14T05:24:28;15.30;83.80
10247;DHT22;5168;47.854;7.944;2022-08-14T05:26:54;15.30;83.50
10247;DHT22;5168;47.854;7.944;2022-08-14T05:29:20;15.70;83.80
10247;DHT22;5168;47.854;7.944;2022-08-14T05:31:45;15.60;84.00
10247;DHT22;5168;47.854;7.944;2022-08-14T05:39:04;16.50;70.00
10247;DHT22;5168;47.854;7.944;2022-08-14T05:43:57;16.60;77.60
10247;DHT22;5168;47.854;7.944;2022-08-14T05:46:23;17.50;77.70
10247;DHT22;5168;47.854;7.944;2022-08-14T05:48:54;17.70;76.90
10247;DHT22;5168;47.854;7.944;2022-08-14T05:51:21;18.00;63.90
10247;DHT22;5168;47.854;7.944;2022-08-14T05:53:47;18.40;73.50
10247;DHT22;5168;47.854;7.944;2022-08-14T05:56:13;18.60;72.40
10247;DHT22;5168;47.854;7.944;2022-08-14T05:58:39;18.30;66.10
10247;DHT22;5168;47.854;7.944;2022-08-14T06:08:28;19.60;57.50
10247;DHT22;5168;47.854;7.944;2022-08-14T06:10:59;20.20;67.30
10247;DHT22;5168;47.854;7.944;2022-08-14T06:13:28;20.10;56.50
10247;DHT22;5168;47.854;7.944;2022-08-14T06:15:54;20.70;66.00
10247;DHT22;5168;47.854;7.944;2022-08-14T06:23:11;21.20;65.50
10247;DHT22;5168;47.854;7.944;2022-08-14T06:28:03;21.50;63.20
10247;DHT22;5168;47.854;7.944;2022-08-14T06:30:31;21.80;63.90
10247;DHT22;5168;47.854;7.944;2022-08-14T06:32:58;22.00;63.00
10247;DHT22;5168;47.854;7.944;2022-08-14T06:35:24;21.80;63.40
10247;DHT22;5168;47.854;7.944;2022-08-14T06:37:52;21.80;54.70
10247;DHT22;5168;47.854;7.944;2022-08-14T06:40:21;21.90;54.00
10247;DHT22;5168;47.854;7.944;2022-08-14T06:42:47;22.20;60.60
10247;DHT22;5168;47.854;7.944;2022-08-14T06:45:12;22.00;60.60
10247;DHT22;5168;47.854;7.944;2022-08-14T06:47:41;22.90;59.30
10247;DHT22;5168;47.854;7.944;2022-08-14T06:50:18;22.40;59.00
10247;DHT22;5168;47.854;7.944;2022-08-14T06:52:45;22.40;58.80
10247;DHT22;5168;47.854;7.944;2022-08-14T06:55:13;22.70;58.40
10247;DHT22;5168;47.854;7.944;2022-08-14T06:57:44;22.90;58.30
10247;DHT22;5168;47.854;7.944;2022-08-14T07:00:30;23.00;58.30
10247;DHT22;5168;47.854;7.944;2022-08-14T07:02:56;23.10;58.10
10247;DHT22;5168;47.854;7.944;2022-08-14T07:05:40;23.30;57.00
10247;DHT22;5168;47.854;7.944;2022-08-14T07:08:24;23.50;56.50
10247;DHT22;5168;47.854;7.944;2022-08-14T07:10:54;24.00;57.20
10247;DHT22;5168;47.854;7.944;2022-08-14T07:13:20;23.90;57.20
10247;DHT22;5168;47.854;7.944;2022-08-14T07:15:48;23.40;56.60
10247;DHT22;5168;47.854;7.944;2022-08-14T07:18:26;23.60;57.10
10247;DHT22;5168;47.854;7.944;2022-08-14T07:20:52;23.60;54.50
10247;DHT22;5168;47.854;7.944;2022-08-14T07:23:19;24.40;57.10
10247;DHT22;5168;47.854;7.944;2022-08-14T07:25:49;24.40;56.50
10247;DHT22;5168;47.854;7.944;2022-08-14T07:28:27;24.40;54.90
10247;DHT22;5168;47.854;7.944;2022-08-14T07:30:55;24.80;54.90
10247;DHT22;5168;47.854;7.944;2022-08-14T07:33:23;25.00;50.80
10247;DHT22;5168;47.854;7.944;2022-08-14T07:35:50;24.60;50.30
10247;DHT22;5168;47.854;7.944;2022-08-14T07:38:18;24.90;53.70
10247;DHT22;5168;47.854;7.944;2022-08-14T07:45:38;24.60;50.20
10247;DHT22;5168;47.854;7.944;2022-08-14T07:48:04;25.10;53.30
10247;DHT22;5168;47.854;7.944;2022-08-14T07:50:31;24.70;53.30
10247;DHT22;5168;47.854;7.944;2022-08-14T07:52:57;24.70;52.30
10247;DHT22;5168;47.854;7.944;2022-08-14T08:00:19;26.10;52.30
10247;DHT22;5168;47.854;7.944;2022-08-14T08:02:49;25.70;45.00
10247;DHT22;5168;47.854;7.944;2022-08-14T08:05:17;26.20;42.50
10247;DHT22;5168;47.854;7.944;2022-08-14T08:07:45;25.90;48.70
10247;DHT22;5168;47.854;7.944;2022-08-14T08:10:17;26.20;49.20
10247;DHT22;5168;47.854;7.944;2022-08-14T08:13:09;26.10;49.90
10247;DHT22;5168;47.854;7.944;2022-08-14T08:15:38;26.40;45.50
10247;DHT22;5168;47.854;7.944;2022-08-14T08:18:06;26.80;49.60
10247;DHT22;5168;47.854;7.944;2022-08-14T08:20:40;26.70;41.00
10247;DHT22;5168;47.854;7.944;2022-08-14T08:23:07;26.60;48.00
10247;DHT22;5168;47.854;7.944;2022-08-14T08:25:36;26.50;42.10
10247;DHT22;5168;47.854;7.944;2022-08-14T08:28:19;26.50;48.50
10247;DHT22;5168;47.854;7.944;2022-08-14T08:31:00;27.70;48.90
10247;DHT22;5168;47.854;7.944;2022-08-14T08:33:28;26.80;49.20
10247;DHT22;5168;47.854;7.944;2022-08-14T08:35:57;26.80;42.60
10247;DHT22;5168;47.854;7.944;2022-08-14T08:38:25;26.80;49.40
10247;DHT22;5168;47.854;7.944;2022-08-14T08:40:54;26.50;49.10
10247;DHT22;5168;47.854;7.944;2022-08-14T08:43:25;27.10;49.40
10247;DHT22;5168;47.854;7.944;2022-08-14T08:46:00;27.20;49.80
10247;DHT22;5168;47.854;7.944;2022-08-14T08:48:28;27.30;49.90
10247;DHT22;5168;47.854;7.944;2022-08-14T08:50:59;28.50;49.40
10247;DHT22;5168;47.854;7.944;2022-08-14T08:53:32;27.50;49.10
10247;DHT22;5168;47.854;7.944;2022-08-14T08:55:58;27.90;49.30
10247;DHT22;5168;47.854;7.944;2022-08-14T08:58:25;27.70;48.80
10247;DHT22;5168;47.854;7.944;2022-08-14T09:00:56;27.90;48.80
10247;DHT22;5168;47.854;7.944;2022-08-14T09:03:25;28.30;48.10
10247;DHT22;5168;47.854;7.944;2022-08-14T09:06:00;28.40;48.90
10247;DHT22;5168;47.854;7.944;2022-08-14T09:08:33;29.10;49.30
10247;DHT22;5168;47.854;7.944;2022-08-14T09:11:04;28.70;48.90
10247;DHT22;5168;47.854;7.944;2022-08-14T09:13:31;28.50;47.50
10247;DHT22;5168;47.854;7.944;2022-08-14T09:20:53;29.00;42.80
10247;DHT22;5168;47.854;7.944;2022-08-14T09:25:47;28.50;43.00
10247;DHT22;5168;47.854;7.944;2022-08-14T09:28:15;28.50;49.90
10247;DHT22;5168;47.854;7.944;2022-08-14T09:30:48;28.50;49.60
10247;DHT22;5168;47.854;7.944;2022-08-14T09:38:49;29.00;49.20
10247;DHT22;5168;47.854;7.944;2022-08-14T09:46:39;29.10;49.40
10247;DHT22;5168;47.854;7.944;2022-08-14T09:51:42;29.40;49.50
10247;DHT22;5168;47.854;7.944;2022-08-14T09:54:09;29.30;49.70
10247;DHT22;5168;47.854;7.944;2022-08-14T09:56:44;29.40;46.70
10247;DHT22;5168;47.854;7.944;2022-08-14T09:59:13;29.50;49.50
10247;DHT22;5168;47.854;7.944;2022-08-14T10:01:39;30.00;50.10
10247;DHT22;5168;47.854;7.944;2022-08-14T10:04:20;29.60;43.50
10247;DHT22;5168;47.854;7.944;2022-08-14T10:06:47;29.60;49.40
10247;DHT22;5168;47.854;7.944;2022-08-14T10:11:41;29.50;49.60
10247;DHT22;5168;47.854;7.944;2022-08-14T10:14:20;29.50;47.30
10247;DHT22;5168;47.854;7.944;2022-08-14T10:16:48;29.30;49.70
10247;DHT22;5168;47.854;7.944;2022-08-14T10:19:20;29.30;43.70
10247;DHT22;5168;47.854;7.944;2022-08-14T10:22:22;28.70;50.20
10247;DHT22;5168;47.854;7.944;2022-08-14T10:24:49;29.70;47.50
10247;DHT22;5168;47.854;7.944;2022-08-14T10:27:25;29.40;44.60
10247;DHT22;5168;47.854;7.944;2022-08-14T10:29:58;28.80;50.30
10247;DHT22;5168;47.854;7.944;2022-08-14T10:32:28;29.40;50.70
10247;DHT22;5168;47.854;7.944;2022-08-14T10:35:06;29.60;46.50
10247;DHT22;5168;47.854;7.944;2022-08-14T10:37:45;29.10;45.30
10247;DHT22;5168;47.854;7.944;2022-08-14T10:40:15;29.10;46.00
10247;DHT22;5168;47.854;7.944;2022-08-14T10:42:42;29.30;51.10
10247;DHT22;5168;47.854;7.944;2022-08-14T10:45:29;29.30;50.80
10247;DHT22;5168;47.854;7.944;2022-08-14T10:47:55;29.30;49.10
10247;DHT22;5168;47.854;7.944;2022-08-14T10:50:35;29.40;45.10
10247;DHT22;5168;47.854;7.944;2022-08-14T10:53:01;29.40;50.80
10247;DHT22;5168;47.854;7.944;2022-08-14T10:55:36;29.60;50.90
10247;DHT22;5168;47.854;7.944;2022-08-14T10:58:07;29.80;45.40
10247;DHT22;5168;47.854;7.944;2022-08-14T11:00:40;30.60;49.00
10247;DHT22;5168;47.854;7.944;2022-08-14T11:03:09;30.30;45.10
10247;DHT22;5168;47.854;7.944;2022-08-14T11:05:42;30.20;50.50
10247;DHT22;5168;47.854;7.944;2022-08-14T11:08:09;30.30;47.90
10247;DHT22;5168;47.854;7.944;2022-08-14T11:13:05;30.20;51.50
10247;DHT22;5168;47.854;7.944;2022-08-14T11:15:31;29.60;46.60
10247;DHT22;5168;47.854;7.944;2022-08-14T11:17:57;29.80;52.10
10247;DHT22;5168;47.854;7.944;2022-08-14T11:20:24;29.60;49.40
10247;DHT22;5168;47.854;7.944;2022-08-14T11:22:52;29.40;57.20
10247;DHT22;5168;47.854;7.944;2022-08-14T11:25:20;29.30;58.30
10247;DHT22;5168;47.854;7.944;2022-08-14T11:27:48;29.40;57.60
10247;DHT22;5168;47.854;7.944;2022-08-14T11:30:17;29.00;60.30
10247;DHT22;5168;47.854;7.944;2022-08-14T11:32:45;29.20;59.80
10247;DHT22;5168;47.854;7.944;2022-08-14T11:35:24;29.10;63.40
10247;DHT22;5168;47.854;7.944;2022-08-14T11:38:03;29.00;64.10
10247;DHT22;5168;47.854;7.944;2022-08-14T11:40:34;28.90;64.90
10247;DHT22;5168;47.854;7.944;2022-08-14T11:43:02;28.90;63.90
10247;DHT22;5168;47.854;7.944;2022-08-14T11:45:30;28.80;59.00
10247;DHT22;5168;47.854;7.944;2022-08-14T11:50:27;28.10;66.20
10247;DHT22;5168;47.854;7.944;2022-08-14T11:52:55;27.90;60.00
10247;DHT22;5168;47.854;7.944;2022-08-14T11:55:23;27.40;68.10
10247;DHT22;5168;47.854;7.944;2022-08-14T11:58:03;27.30;69.20
10247;DHT22;5168;47.854;7.944;2022-08-14T12:00:29;27.40;69.70
10247;DHT22;5168;47.854;7.944;2022-08-14T12:02:57;26.90;71.10
10247;DHT22;5168;47.854;7.944;2022-08-14T12:05:31;27.00;72.30
10247;DHT22;5168;47.854;7.944;2022-08-14T12:07:58;26.30;73.30
10247;DHT22;5168;47.854;7.944;2022-08-14T12:10:24;26.20;73.70
10247;DHT22;5168;47.854;7.944;2022-08-14T12:15:29;25.50;77.00
10247;DHT22;5168;47.854;7.944;2022-08-14T12:20:28;25.30;70.40
10247;DHT22;5168;47.854;7.944;2022-08-14T12:22:55;24.80;73.60
10247;DHT22;5168;47.854;7.944;2022-08-14T12:25:22;23.60;70.40
10247;DHT22;5168;47.854;7.944;2022-08-14T12:27:49;25.60;81.50
10247;DHT22;5168;47.854;7.944;2022-08-14T12:30:44;25.10;71.40
10247;DHT22;5168;47.854;7.944;2022-08-14T12:33:25;25.30;79.90
10247;DHT22;5168;47.854;7.944;2022-08-14T12:35:53;25.60;70.30
10247;DHT22;5168;47.854;7.944;2022-08-14T12:38:40;25.80;75.80
10247;DHT22;5168;47.854;7.944;2022-08-14T12:41:17;26.20;69.50
10247;DHT22;5168;47.854;7.944;2022-08-14T12:43:55;26.20;77.50
10247;DHT22;5168;47.854;7.944;2022-08-14T12:46:27;26.30;76.50
10247;DHT22;5168;47.854;7.944;2022-08-14T12:48:54;27.00;70.00
10247;DHT22;5168;47.854;7.944;2022-08-14T12:51:24;26.10;68.20
10247;DHT22;5168;47.854;7.944;2022-08-14T12:53:54;26.50;69.50
10247;DHT22;5168;47.854;7.944;2022-08-14T12:56:21;25.70;69.20
10247;DHT22;5168;47.854;7.944;2022-08-14T12:58:57;26.10;78.70
10247;DHT22;5168;47.854;7.944;2022-08-14T13:03:50;25.40;74.20
10247;DHT22;5168;47.854;7.944;2022-08-14T13:06:17;25.20;78.60
10247;DHT22;5168;47.854;7.944;2022-08-14T13:11:13;25.60;79.80
10247;DHT22;5168;47.854;7.944;2022-08-14T13:13:42;24.50;79.50
10247;DHT22;5168;47.854;7.944;2022-08-14T13:16:11;24.60;75.40
10247;DHT22;5168;47.854;7.944;2022-08-14T13:18:42;24.30;75.50
10247;DHT22;5168;47.854;7.944;2022-08-14T13:21:11;24.80;80.90
10247;DHT22;5168;47.854;7.944;2022-08-14T13:23:40;24.50;80.40
10247;DHT22;5168;47.854;7.944;2022-08-14T13:28:37;24.40;71.20
10247;DHT22;5168;47.854;7.944;2022-08-14T13:31:06;24.40;71.20
10247;DHT22;5168;47.854;7.944;2022-08-14T13:33:32;24.40;78.10
10247;DHT22;5168;47.854;7.944;2022-08-14T13:35:59;24.20;78.50
10247;DHT22;5168;47.854;7.944;2022-08-14T13:40:54;24.50;67.70
10247;DHT22;5168;47.854;7.944;2022-08-14T13:43:21;24.40;69.50
10247;DHT22;5168;47.854;7.944;2022-08-14T13:45:49;24.50;74.00
10247;DHT22;5168;47.854;7.944;2022-08-14T13:50:43;24.70;74.80
10247;DHT22;5168;47.854;7.944;2022-08-14T13:53:11;24.10;70.10
10247;DHT22;5168;47.854;7.944;2022-08-14T13:55:39;23.60;65.10
10247;DHT22;5168;47.854;7.944;2022-08-14T13:58:07;24.30;73.60
10247;DHT22;5168;47.854;7.944;2022-08-14T14:00:34;23.80;72.20
10247;DHT22;5168;47.854;7.944;2022-08-14T14:03:02;24.10;72.30
10247;DHT22;5168;47.854;7.944;2022-08-14T14:05:31;23.80;71.90
10247;DHT22;5168;47.854;7.944;2022-08-14T14:08:01;23.80;71.40
10247;DHT22;5168;47.854;7.944;2022-08-14T14:10:32;23.40;63.00
10247;DHT22;5168;47.854;7.944;2022-08-14T14:13:01;23.70;61.90
10247;DHT22;5168;47.854;7.944;2022-08-14T14:15:26;23.40;70.70
10247;DHT22;5168;47.854;7.944;2022-08-14T14:17:52;24.10;71.80
10247;DHT22;5168;47.854;7.944;2022-08-14T14:20:19;23.90;61.60
10247;DHT22;5168;47.854;7.944;2022-08-14T14:22:47;23.70;70.00
10247;DHT22;5168;47.854;7.944;2022-08-14T14:25:16;24.10;70.60
10247;DHT22;5168;47.854;7.944;2022-08-14T14:27:43;23.60;68.80
10247;DHT22;5168;47.854;7.944;2022-08-14T14:30:11;23.80;68.30
10247;DHT22;5168;47.854;7.944;2022-08-14T14:32:38;23.60;59.40
10247;DHT22;5168;47.854;7.944;2022-08-14T14:35:13;23.80;69.10
10247;DHT22;5168;47.854;7.944;2022-08-14T14:37:41;23.60;59.00
10247;DHT22;5168;47.854;7.944;2022-08-14T14:40:09;23.80;60.70
10247;DHT22;5168;47.854;7.944;2022-08-14T14:42:49;23.70;65.60
10247;DHT22;5168;47.854;7.944;2022-08-14T14:45:21;23.60;60.10
10247;DHT22;5168;47.854;7.944;2022-08-14T14:47:50;23.50;62.10
10247;DHT22;5168;47.854;7.944;2022-08-14T14:50:16;23.30;67.10
10247;DHT22;5168;47.854;7.944;2022-08-14T14:55:09;23.10;66.70
10247;DHT22;5168;47.854;7.944;2022-08-14T14:57:39;23.00;66.70
10247;DHT22;5168;47.854;7.944;2022-08-14T15:00:16;23.40;62.20
10247;DHT22;5168;47.854;7.944;2022-08-14T15:02:50;23.40;66.90
10247;DHT22;5168;47.854;7.944;2022-08-14T15:05:17;23.50;66.70
10247;DHT22;5168;47.854;7.944;2022-08-14T15:07:45;23.10;57.60
10247;DHT22;5168;47.854;7.944;2022-08-14T15:10:13;23.10;66.70
10247;DHT22;5168;47.854;7.944;2022-08-14T15:12:39;22.90;66.80
10247;DHT22;5168;47.854;7.944;2022-08-14T15:15:05;23.00;66.20
10247;DHT22;5168;47.854;7.944;2022-08-14T15:17:31;22.90;63.60
10247;DHT22;5168;47.854;7.944;2022-08-14T15:20:03;23.90;66.80
10247;DHT22;5168;47.854;7.944;2022-08-14T15:24:56;23.80;65.40
10247;DHT22;5168;47.854;7.944;2022-08-14T15:27:21;23.20;65.30
10247;DHT22;5168;47.854;7.944;2022-08-14T15:29:47;23.70;65.50
10247;DHT22;5168;47.854;7.944;2022-08-14T15:32:13;22.90;58.40
10247;DHT22;5168;47.854;7.944;2022-08-14T15:34:39;23.70;66.70
10247;DHT22;5168;47.854;7.944;2022-08-14T15:37:06;23.20;65.70
10247;DHT22;5168;47.854;7.944;2022-08-14T15:39:32;23.20;64.60
10247;DHT22;5168;47.854;7.944;2022-08-14T15:41:58;23.30;66.30
10247;DHT22;5168;47.854;7.944;2022-08-14T15:44:27;22.40;66.20
10247;DHT22;5168;47.854;7.944;2022-08-14T15:46:55;23.00;68.20
10247;DHT22;5168;47.854;7.944;2022-08-14T15:49:21;22.10;59.30
10247;DHT22;5168;47.854;7.944;2022-08-14T15:51:48;22.20;65.80
10247;DHT22;5168;47.854;7.944;2022-08-14T15:54:14;22.20;66.90
10247;DHT22;5168;47.854;7.944;2022-08-14T15:59:10;22.30;74.90
10247;DHT22;5168;47.854;7.944;2022-08-14T16:01:35;21.30;75.30
10247;DHT22;5168;47.854;7.944;2022-08-14T16:04:01;21.20;72.20
10247;DHT22;5168;47.854;7.944;2022-08-14T16:06:27;21.40;68.50
10247;DHT22;5168;47.854;7.944;2022-08-14T16:08:56;21.50;79.80
10247;DHT22;5168;47.854;7.944;2022-08-14T16:11:22;21.10;78.20
10247;DHT22;5168;47.854;7.944;2022-08-14T16:13:48;21.00;80.50
10247;DHT22;5168;47.854;7.944;2022-08-14T16:16:23;20.40;71.70
10247;DHT22;5168;47.854;7.944;2022-08-14T16:18:49;21.00;82.30
10247;DHT22;5168;47.854;7.944;2022-08-14T16:21:18;20.70;82.60
10247;DHT22;5168;47.854;7.944;2022-08-14T16:23:45;21.20;82.30
10247;DHT22;5168;47.854;7.944;2022-08-14T16:26:15;20.10;83.40
10247;DHT22;5168;47.854;7.944;2022-08-14T16:28:42;20.40;84.20
10247;DHT22;5168;47.854;7.944;2022-08-14T16:36:02;20.40;74.90
10247;DHT22;5168;47.854;7.944;2022-08-14T16:41:02;20.40;76.10
10247;DHT22;5168;47.854;7.944;2022-08-14T16:44:08;21.00;85.00
10247;DHT22;5168;47.854;7.944;2022-08-14T16:46:39;20.50;80.50
10247;DHT22;5168;47.854;7.944;2022-08-14T16:49:10;20.70;74.70
10247;DHT22;5168;47.854;7.944;2022-08-14T16:51:37;20.80;74.70
10247;DHT22;5168;47.854;7.944;2022-08-14T16:54:08;19.80;73.30
10247;DHT22;5168;47.854;7.944;2022-08-14T16:56:34;20.80;79.50
10247;DHT22;5168;47.854;7.944;2022-08-14T16:59:15;20.80;72.90
10247;DHT22;5168;47.854;7.944;2022-08-14T17:01:46;20.60;80.80
10247;DHT22;5168;47.854;7.944;2022-08-14T17:04:24;20.30;81.20
10247;DHT22;5168;47.854;7.944;2022-08-14T17:06:55;20.70;82.20
10247;DHT22;5168;47.854;7.944;2022-08-14T17:14:26;21.00;84.70
10247;DHT22;5168;47.854;7.944;2022-08-14T17:17:13;21.00;85.00
10247;DHT22;5168;47.854;7.944;2022-08-14T17:19:38;20.30;84.80
10247;DHT22;5168;47.854;7.944;2022-08-14T17:22:05;20.10;85.00
10247;DHT22;5168;47.854;7.944;2022-08-14T17:24:30;20.30;85.40
10247;DHT22;5168;47.854;7.944;2022-08-14T17:26:56;19.70;79.10
10247;DHT22;5168;47.854;7.944;2022-08-14T17:29:24;20.10;79.00
10247;DHT22;5168;47.854;7.944;2022-08-14T17:31:51;20.20;87.50
10247;DHT22;5168;47.854;7.944;2022-08-14T17:34:18;19.70;87.30
10247;DHT22;5168;47.854;7.944;2022-08-14T17:36:49;19.60;88.00
10247;DHT22;5168;47.854;7.944;2022-08-14T17:39:20;20.10;88.70
10247;DHT22;5168;47.854;7.944;2022-08-14T17:41:51;19.80;78.40
10247;DHT22;5168;47.854;7.944;2022-08-14T17:44:22;20.00;88.90
10247;DHT22;5168;47.854;7.944;2022-08-14T17:47:06;19.80;88.80
10247;DHT22;5168;47.854;7.944;2022-08-14T17:49:43;20.00;81.60
10247;DHT22;5168;47.854;7.944;2022-08-14T17:52:11;20.10;84.40
10247;DHT22;5168;47.854;7.944;2022-08-14T17:54:51;19.70;89.00
10247;DHT22;5168;47.854;7.944;2022-08-14T17:57:19;20.10;89.40
10247;DHT22;5168;47.854;7.944;2022-08-14T17:59:46;19.80;88.90
10247;DHT22;5168;47.854;7.944;2022-08-14T18:02:18;19.60;88.80
10247;DHT22;5168;47.854;7.944;2022-08-14T18:04:45;19.60;80.20
10247;DHT22;5168;47.854;7.944;2022-08-14T18:07:15;19.60;88.90
10247;DHT22;5168;47.854;7.944;2022-08-14T18:09:44;19.80;89.20
10247;DHT22;5168;47.854;7.944;2022-08-14T18:12:10;19.10;89.10
10247;DHT22;5168;47.854;7.944;2022-08-14T18:14:37;19.10;89.20
10247;DHT22;5168;47.854;7.944;2022-08-14T18:17:05;19.80;90.00
10247;DHT22;5168;47.854;7.944;2022-08-14T18:19:32;19.40;80.80
10247;DHT22;5168;47.854;7.944;2022-08-14T18:22:00;19.40;81.10
10247;DHT22;5168;47.854;7.944;2022-08-14T18:24:29;18.90;89.20
10247;DHT22;5168;47.854;7.944;2022-08-14T18:27:05;19.30;88.20
10247;DHT22;5168;47.854;7.944;2022-08-14T18:29:34;19.40;85.70
10247;DHT22;5168;47.854;7.944;2022-08-14T18:35:22;19.00;91.00
10247;DHT22;5168;47.854;7.944;2022-08-14T18:37:49;19.50;91.20